Valmiera, Latvia
Current Conditions -  °F | °C
As of 8:50 PM on Wednesday 26 Nov 2014 (Local Time) from EVRA Reporting Station
Overcast Overcast  
Wind Chill: 24°   Ceiling: 600
Heat Index: 32°   Visibility: 4mi
Dew Point: 30°   Wind: 10mph
Humidity: 93%   Direction: 170°S
Pressure: 30.33"   Gusts: NA
Location:  57.55°N, 25.42°E
Report Text: EVRA 261750Z 17009KT 7000 OVC006 M00/M01 Q1027 R18/190095 NOSIG
Loading
Personal Weather Stations






























Interactive Weather Map New forecast layout! Learn more

10-Day Weather Forecast

Advertisements
Track Severe Weather on mobile